createdAt,value
2018-04-07T00:02:01.353Z,76.57
2018-04-07T00:04:27.763Z,76.29
2018-04-07T00:06:54.263Z,75.50
2018-04-07T00:09:20.625Z,75.16
2018-04-07T00:11:47.065Z,74.59
2018-04-07T00:14:13.541Z,74.39
2018-04-07T00:16:40.007Z,74.61
2018-04-07T00:19:06.484Z,75.11
2018-04-07T00:21:32.920Z,74.90
2018-04-07T00:23:59.252Z,74.75
2018-04-07T00:26:25.697Z,74.76
2018-04-07T00:28:52.247Z,74.63
2018-04-07T00:31:18.661Z,74.38
2018-04-07T00:33:45.076Z,74.09
2018-04-07T00:36:11.570Z,73.32
2018-04-07T00:38:38.001Z,73.24
2018-04-07T00:41:04.424Z,73.44
2018-04-07T00:43:30.930Z,73.62
2018-04-07T00:45:57.327Z,73.12
2018-04-07T00:48:23.757Z,72.81
2018-04-07T00:50:50.225Z,73.20
2018-04-07T00:53:16.749Z,73.64
2018-04-07T00:55:43.110Z,73.78
2018-04-07T00:58:09.647Z,73.67
2018-04-07T01:00:36.106Z,73.41
2018-04-07T01:03:02.590Z,72.83
2018-04-07T01:05:29.013Z,73.20
2018-04-07T01:07:55.446Z,73.35
2018-04-07T01:10:21.857Z,73.85
2018-04-07T01:12:48.437Z,74.28
2018-04-07T01:15:14.925Z,75.41
2018-04-07T01:17:41.351Z,75.95
2018-04-07T01:20:07.766Z,76.17
2018-04-07T01:22:34.177Z,75.88
2018-04-07T01:25:00.577Z,75.80
2018-04-07T01:27:27.111Z,76.11
2018-04-07T01:29:53.510Z,76.16
2018-04-07T01:32:19.876Z,76.59
2018-04-07T01:34:46.371Z,75.59
2018-04-07T01:37:12.726Z,75.79
2018-04-07T01:39:39.240Z,76.01
2018-04-07T01:42:05.706Z,76.26
2018-04-07T01:44:32.141Z,76.69
2018-04-07T01:46:58.525Z,75.75
2018-04-07T01:49:25.019Z,76.42
2018-04-07T01:51:51.521Z,76.51
2018-04-07T01:54:17.995Z,76.38
2018-04-07T01:56:44.394Z,75.58
2018-04-07T01:59:10.760Z,75.49
2018-04-07T02:01:37.246Z,75.22
2018-04-07T02:04:03.702Z,75.06
2018-04-07T02:06:30.183Z,75.54
2018-04-07T02:08:56.612Z,76.06
2018-04-07T02:11:23.078Z,76.43
2018-04-07T02:13:49.563Z,75.69
2018-04-07T02:16:16.128Z,75.31
2018-04-07T02:18:42.490Z,75.19
2018-04-07T02:21:08.902Z,74.95
2018-04-07T02:23:35.363Z,75.16
2018-04-07T02:26:01.733Z,75.05
2018-04-07T02:28:28.281Z,75.67
2018-04-07T02:30:54.674Z,75.82
2018-04-07T02:33:21.294Z,76.11
2018-04-07T02:35:47.774Z,76.58
2018-04-07T02:38:14.346Z,76.00
2018-04-07T02:40:40.784Z,75.89
2018-04-07T02:43:07.297Z,76.24
2018-04-07T02:45:33.755Z,76.41
2018-04-07T02:48:00.139Z,76.51
2018-04-07T02:50:26.588Z,76.83
2018-04-07T02:52:53.089Z,77.45
2018-04-07T02:55:19.592Z,77.66
2018-04-07T02:57:46.108Z,77.80
2018-04-07T03:00:12.664Z,78.20
2018-04-07T03:02:39.114Z,77.54
2018-04-07T03:05:05.661Z,77.73
2018-04-07T03:07:32.033Z,78.04
2018-04-07T03:09:58.460Z,78.68
2018-04-07T03:12:24.860Z,78.42
2018-04-07T03:14:51.286Z,78.42
2018-04-07T03:17:17.729Z,78.14
2018-04-07T03:19:44.290Z,78.25
2018-04-07T03:22:10.754Z,77.80
2018-04-07T03:24:37.206Z,77.51
2018-04-07T03:27:03.642Z,77.45
2018-04-07T03:29:30.190Z,77.42
2018-04-07T03:31:56.602Z,77.51
2018-04-07T03:34:23.005Z,77.73
2018-04-07T03:36:49.441Z,77.80
2018-04-07T03:39:15.886Z,77.01
2018-04-07T03:41:42.356Z,76.77
2018-04-07T03:44:08.758Z,76.92
2018-04-07T03:46:35.182Z,76.32
2018-04-07T03:49:01.658Z,76.01
2018-04-07T03:51:28.067Z,75.87
2018-04-07T03:53:54.527Z,75.89
2018-04-07T03:56:21.022Z,75.43
2018-04-07T03:58:47.482Z,74.97
2018-04-07T04:01:13.872Z,74.98
2018-04-07T04:03:40.266Z,75.35
2018-04-07T04:06:06.747Z,75.68
2018-04-07T04:08:33.142Z,75.54
2018-04-07T04:10:59.554Z,75.17
2018-04-07T04:13:25.989Z,74.59
2018-04-07T04:15:52.452Z,74.41
2018-04-07T04:18:18.930Z,75.26
2018-04-07T04:20:45.465Z,75.73
2018-04-07T04:23:11.984Z,75.62
2018-04-07T04:25:38.432Z,76.09
2018-04-07T04:28:04.936Z,76.36
2018-04-07T04:30:31.361Z,75.87
2018-04-07T04:32:58.487Z,75.91
2018-04-07T04:35:24.909Z,75.73
2018-04-07T04:37:51.367Z,76.17
2018-04-07T04:40:17.974Z,76.65
2018-04-07T04:42:44.502Z,76.72
2018-04-07T04:45:10.946Z,76.56
2018-04-07T04:47:37.486Z,76.01
2018-04-07T04:50:03.938Z,76.53
2018-04-07T04:52:30.529Z,76.70
2018-04-07T04:54:56.919Z,75.79
2018-04-07T04:57:23.336Z,75.42
2018-04-07T04:59:49.992Z,76.14
2018-04-07T05:02:16.493Z,76.23
2018-04-07T05:04:42.985Z,76.31
2018-04-07T05:07:09.462Z,76.56
2018-04-07T05:09:35.920Z,76.69
2018-04-07T05:12:02.355Z,76.52
2018-04-07T05:14:28.794Z,75.90
2018-04-07T05:16:55.294Z,75.31
2018-04-07T05:19:21.707Z,74.85
2018-04-07T05:21:48.116Z,74.01
2018-04-07T05:24:14.523Z,73.84
2018-04-07T05:26:40.961Z,73.59
2018-04-07T05:29:07.401Z,73.77
2018-04-07T05:31:33.954Z,74.20
2018-04-07T05:34:00.389Z,74.38
2018-04-07T05:36:26.846Z,74.22
2018-04-07T05:38:53.262Z,73.69
2018-04-07T05:41:19.675Z,73.54
2018-04-07T05:43:46.157Z,73.16
2018-04-07T05:46:12.597Z,73.01
2018-04-07T05:48:39.050Z,73.00
2018-04-07T05:51:07.110Z,71.72
2018-04-07T05:53:34.695Z,72.07
2018-04-07T05:56:02.317Z,72.06
2018-04-07T05:58:28.945Z,72.89
2018-04-07T06:00:55.552Z,73.05
2018-04-07T06:03:22.139Z,71.74
2018-04-07T06:05:48.609Z,72.11
2018-04-07T06:08:15.062Z,71.98
2018-04-07T06:10:41.578Z,72.77
2018-04-07T06:13:08.043Z,72.06
2018-04-07T06:15:34.491Z,72.18
2018-04-07T06:18:00.901Z,72.42
2018-04-07T06:20:27.302Z,72.65
2018-04-07T06:22:53.760Z,72.80
2018-04-07T06:25:20.137Z,73.08
2018-04-07T06:27:46.500Z,72.75
2018-04-07T06:30:12.924Z,73.34
2018-04-07T06:32:39.408Z,73.58
2018-04-07T06:35:05.886Z,73.02
2018-04-07T06:37:32.325Z,72.48
2018-04-07T06:39:58.722Z,72.21
2018-04-07T06:42:25.126Z,72.90
2018-04-07T06:44:51.586Z,73.02
2018-04-07T06:47:18.031Z,72.02
2018-04-07T06:49:44.473Z,72.28
2018-04-07T06:52:10.958Z,72.52
2018-04-07T06:54:37.449Z,71.60
2018-04-07T06:57:03.952Z,71.89
2018-04-07T06:59:30.329Z,71.18
2018-04-07T07:01:56.826Z,71.05
2018-04-07T07:04:23.309Z,70.52
2018-04-07T07:06:49.805Z,70.03
2018-04-07T07:09:16.293Z,70.10
2018-04-07T07:11:42.790Z,70.53
2018-04-07T07:14:09.304Z,70.28
2018-04-07T07:16:35.738Z,70.31
2018-04-07T07:19:02.233Z,70.11
2018-04-07T07:21:28.768Z,69.62
2018-04-07T07:23:55.283Z,70.46
2018-04-07T07:26:21.843Z,69.25
2018-04-07T07:28:48.347Z,68.96
2018-04-07T07:31:14.850Z,69.09
2018-04-07T07:33:41.337Z,68.25
2018-04-07T07:36:07.786Z,68.09
2018-04-07T07:38:34.329Z,68.58
2018-04-07T07:41:00.846Z,68.20
2018-04-07T07:43:27.368Z,67.88
2018-04-07T07:45:53.806Z,68.07
2018-04-07T07:48:20.254Z,67.77
2018-04-07T07:50:46.722Z,67.25
2018-04-07T07:53:13.301Z,67.21
2018-04-07T07:55:39.762Z,67.14
2018-04-07T07:58:06.227Z,64.76
2018-04-07T08:00:32.653Z,64.98
2018-04-07T08:02:59.086Z,65.19
2018-04-07T08:05:25.590Z,65.24
2018-04-07T08:07:52.061Z,65.59
2018-04-07T08:10:18.490Z,65.87
2018-04-07T08:12:45.191Z,66.04
2018-04-07T08:15:11.715Z,66.01
2018-04-07T08:17:38.178Z,65.18
2018-04-07T08:20:04.614Z,66.03
2018-04-07T08:22:31.090Z,64.44
2018-04-07T08:24:57.550Z,64.43
2018-04-07T08:27:24.876Z,65.26
2018-04-07T08:29:51.555Z,62.96
2018-04-07T08:32:18.290Z,62.79
2018-04-07T08:34:44.854Z,63.16
2018-04-07T08:37:14.829Z,63.13
2018-04-07T08:39:37.953Z,63.53
2018-04-07T08:42:04.568Z,63.40
2018-04-07T08:44:31.043Z,62.08
2018-04-07T08:46:57.547Z,62.21
2018-04-07T08:49:24.082Z,62.80
2018-04-07T08:51:50.610Z,62.34
2018-04-07T08:54:17.128Z,62.99
2018-04-07T08:56:43.763Z,63.08
2018-04-07T08:59:10.165Z,62.73
2018-04-07T09:01:36.746Z,63.37
2018-04-07T09:04:03.239Z,62.79
2018-04-07T09:06:29.697Z,62.76
2018-04-07T09:08:56.126Z,63.11
2018-04-07T09:11:22.629Z,63.07
2018-04-07T09:13:49.109Z,63.11
2018-04-07T09:18:41.886Z,61.42
2018-04-07T09:21:08.411Z,61.89
2018-04-07T09:23:35.088Z,61.43
2018-04-07T09:26:01.489Z,61.16
2018-04-07T09:28:28.098Z,61.14
2018-04-07T09:31:00.576Z,62.50
2018-04-07T09:33:27.005Z,60.77
2018-04-07T09:35:53.377Z,61.14
2018-04-07T09:38:19.833Z,61.14
2018-04-07T09:40:46.243Z,61.07
2018-04-07T09:43:12.668Z,61.21
2018-04-07T09:45:39.041Z,60.81
2018-04-07T09:48:05.628Z,60.60
2018-04-07T09:50:32.106Z,60.27
2018-04-07T09:52:58.574Z,60.42
2018-04-07T09:55:25.011Z,60.61
2018-04-07T09:57:51.493Z,60.21
2018-04-07T10:00:18.129Z,60.61
2018-04-07T10:02:44.638Z,60.56
2018-04-07T10:05:11.117Z,60.04
2018-04-07T10:07:38.366Z,59.89
2018-04-07T10:10:04.918Z,59.61
2018-04-07T10:12:31.388Z,59.75
2018-04-07T10:14:57.967Z,58.94
2018-04-07T10:17:24.494Z,59.19
2018-04-07T10:19:50.974Z,58.53
2018-04-07T10:22:17.492Z,57.77
2018-04-07T10:24:44.021Z,57.60
2018-04-07T10:27:10.630Z,57.39
2018-04-07T10:29:37.456Z,58.32
2018-04-07T10:32:03.931Z,58.45
2018-04-07T10:34:30.418Z,58.64
2018-04-07T10:36:56.873Z,58.60
2018-04-07T10:39:23.468Z,58.42
2018-04-07T10:41:50.069Z,58.17
2018-04-07T10:44:16.662Z,58.23
2018-04-07T10:46:43.129Z,57.27
2018-04-07T10:49:09.497Z,57.97
2018-04-07T10:51:35.954Z,57.07
2018-04-07T10:54:02.390Z,55.98
2018-04-07T10:56:28.915Z,55.50
2018-04-07T10:58:55.851Z,56.24
2018-04-07T11:01:22.323Z,56.21
2018-04-07T11:03:48.753Z,54.26
2018-04-07T11:06:15.373Z,54.14
2018-04-07T11:08:41.752Z,54.38
2018-04-07T11:11:08.356Z,54.51
2018-04-07T11:13:34.822Z,53.59
2018-04-07T11:16:01.338Z,53.13
2018-04-07T11:18:27.921Z,53.76
2018-04-07T11:20:54.389Z,53.81
2018-04-07T11:23:20.879Z,53.60
2018-04-07T11:25:47.445Z,52.72
2018-04-07T11:28:13.969Z,53.11
2018-04-07T11:30:40.483Z,53.33
2018-04-07T11:33:06.922Z,52.88
2018-04-07T11:35:33.453Z,52.82
2018-04-07T11:38:00.905Z,52.06
2018-04-07T11:40:27.329Z,52.21
2018-04-07T11:42:53.791Z,50.85
2018-04-07T11:45:20.350Z,51.32
2018-04-07T11:47:46.805Z,51.37
2018-04-07T11:50:13.590Z,51.09
2018-04-07T11:52:40.873Z,52.05
2018-04-07T11:55:07.370Z,51.56
2018-04-07T11:57:33.824Z,51.93
2018-04-07T12:00:00.322Z,52.24
2018-04-07T12:02:28.075Z,51.38
2018-04-07T12:04:54.864Z,51.62
2018-04-07T12:07:21.386Z,51.30
2018-04-07T12:09:47.854Z,50.76
2018-04-07T12:12:14.338Z,50.93
2018-04-07T12:14:40.853Z,51.34
2018-04-07T12:17:07.292Z,51.04
2018-04-07T12:19:33.798Z,51.22
2018-04-07T12:22:00.278Z,51.50
2018-04-07T12:24:27.468Z,50.97
2018-04-07T12:26:54.302Z,50.22
2018-04-07T12:29:20.937Z,50.40
2018-04-07T12:31:47.518Z,50.47
2018-04-07T12:34:14.253Z,50.54
2018-04-07T12:36:40.741Z,50.39
2018-04-07T12:39:07.204Z,50.10
2018-04-07T12:41:33.885Z,50.11
2018-04-07T12:44:00.446Z,50.49
2018-04-07T12:46:27.026Z,50.74
2018-04-07T12:48:53.445Z,50.30
2018-04-07T12:51:19.917Z,50.50
2018-04-07T12:53:46.380Z,50.73
2018-04-07T12:56:12.904Z,51.03
2018-04-07T12:58:39.381Z,50.88
2018-04-07T13:01:05.881Z,51.10
2018-04-07T13:03:32.441Z,51.53
2018-04-07T13:05:58.920Z,50.97
2018-04-07T13:08:25.516Z,50.75
2018-04-07T13:10:52.193Z,51.11
2018-04-07T13:13:19.906Z,51.25
2018-04-07T13:15:46.493Z,51.08
2018-04-07T13:18:12.975Z,50.98
2018-04-07T13:20:39.402Z,50.43
2018-04-07T13:23:05.898Z,50.73
2018-04-07T13:25:32.402Z,50.31
2018-04-07T13:27:58.860Z,50.28
2018-04-07T13:30:25.424Z,50.66
2018-04-07T13:32:51.840Z,51.19
2018-04-07T13:35:18.355Z,51.16
2018-04-07T13:37:44.926Z,50.15
2018-04-07T13:40:11.425Z,50.68
2018-04-07T13:42:38.058Z,50.15
2018-04-07T13:45:04.567Z,50.24
2018-04-07T13:47:31.070Z,50.28
2018-04-07T13:49:57.576Z,50.22
2018-04-07T13:52:24.207Z,49.64
2018-04-07T13:54:50.691Z,49.77
2018-04-07T13:57:17.247Z,49.84
2018-04-07T13:59:43.707Z,48.73
2018-04-07T14:02:10.085Z,49.63
2018-04-07T14:07:03.618Z,49.25
2018-04-07T14:09:30.107Z,49.21
2018-04-07T14:11:56.496Z,48.97
2018-04-07T14:14:22.944Z,49.88
2018-04-07T14:16:49.433Z,51.02
2018-04-07T14:19:15.968Z,50.33
2018-04-07T14:21:42.426Z,50.27
2018-04-07T14:24:08.813Z,50.29
2018-04-07T14:26:35.205Z,49.76
2018-04-07T14:29:01.689Z,50.17
2018-04-07T14:31:28.326Z,51.12
2018-04-07T14:33:54.916Z,51.13
2018-04-07T14:36:21.402Z,50.89
2018-04-07T14:38:48.003Z,50.29
2018-04-07T14:41:14.395Z,50.43
2018-04-07T14:43:40.895Z,50.78
2018-04-07T14:46:07.415Z,51.58
2018-04-07T14:48:33.919Z,52.08
2018-04-07T14:51:00.365Z,51.87
2018-04-07T14:53:26.857Z,51.58
2018-04-07T14:55:53.355Z,51.89
2018-04-07T14:58:19.804Z,52.14
2018-04-07T15:00:46.228Z,52.19
2018-04-07T15:03:12.770Z,52.33
2018-04-07T15:05:39.233Z,51.99
2018-04-07T15:08:05.696Z,51.89
2018-04-07T15:10:32.073Z,51.60
2018-04-07T15:12:58.609Z,52.01
2018-04-07T15:15:24.969Z,51.99
2018-04-07T15:17:51.438Z,51.70
2018-04-07T15:20:17.856Z,52.58
2018-04-07T15:22:44.352Z,53.26
2018-04-07T15:25:10.774Z,53.27
2018-04-07T15:27:37.213Z,53.17
2018-04-07T15:30:03.712Z,52.84
2018-04-07T15:32:30.172Z,53.26
2018-04-07T15:34:56.654Z,52.84
2018-04-07T15:37:23.180Z,53.15
2018-04-07T15:39:49.733Z,53.42
2018-04-07T15:42:16.117Z,53.44
2018-04-07T15:44:42.635Z,53.15
2018-04-07T15:47:09.227Z,52.89
2018-04-07T15:49:35.605Z,52.96
2018-04-07T15:52:02.016Z,53.02
2018-04-07T15:54:28.502Z,53.23
2018-04-07T15:56:54.982Z,53.14
2018-04-07T15:59:21.511Z,52.90
2018-04-07T16:01:47.937Z,52.98
2018-04-07T16:04:14.474Z,52.71
2018-04-07T16:06:40.988Z,52.62
2018-04-07T16:09:07.414Z,53.20
2018-04-07T16:11:34.034Z,53.19
2018-04-07T16:14:00.450Z,53.76
2018-04-07T16:16:27.085Z,53.74
2018-04-07T16:18:53.574Z,53.56
2018-04-07T16:21:20.008Z,53.43
2018-04-07T16:23:46.479Z,53.51
2018-04-07T16:26:12.933Z,53.45
2018-04-07T16:28:39.438Z,53.38
2018-04-07T16:31:05.893Z,53.39
2018-04-07T16:33:32.418Z,53.09
2018-04-07T16:35:58.971Z,53.40
2018-04-07T16:38:25.460Z,53.39
2018-04-07T16:40:51.901Z,52.90
2018-04-07T16:43:18.317Z,52.72
2018-04-07T16:45:44.934Z,52.23
2018-04-07T16:48:11.344Z,51.97
2018-04-07T16:50:37.862Z,51.54
2018-04-07T16:53:04.334Z,51.93
2018-04-07T16:55:30.756Z,51.71
2018-04-07T16:57:57.600Z,51.81
2018-04-07T17:00:24.038Z,51.74
2018-04-07T17:02:50.659Z,51.73
2018-04-07T17:05:17.327Z,51.84
2018-04-07T17:07:43.872Z,51.51
2018-04-07T17:10:10.378Z,51.23
2018-04-07T17:12:36.812Z,51.04
2018-04-07T17:15:03.428Z,51.42
2018-04-07T17:17:29.909Z,51.06
2018-04-07T17:19:56.365Z,51.22
2018-04-07T17:22:22.876Z,50.73
2018-04-07T17:24:49.370Z,50.65
2018-04-07T17:27:16.045Z,50.51
2018-04-07T17:29:49.286Z,53.76
2018-04-07T17:32:17.863Z,50.75
2018-04-07T17:34:45.279Z,50.81
2018-04-07T17:37:13.890Z,50.98
2018-04-07T17:39:40.434Z,51.37
2018-04-07T17:42:07.343Z,51.35
2018-04-07T17:44:33.875Z,51.61
2018-04-07T17:47:07.606Z,51.91
2018-04-07T17:49:43.607Z,52.26
2018-04-07T17:52:00.689Z,52.55
2018-04-07T17:54:27.130Z,52.84
2018-04-07T17:56:53.609Z,53.30
2018-04-07T17:59:20.647Z,53.98
2018-04-07T18:01:47.281Z,54.18
2018-04-07T18:04:13.742Z,54.67
2018-04-07T18:06:40.761Z,54.67
2018-04-07T18:09:07.450Z,54.47
2018-04-07T18:11:33.925Z,54.50
2018-04-07T18:14:00.272Z,54.81
2018-04-07T18:16:26.694Z,54.63
2018-04-07T18:18:53.144Z,54.65
2018-04-07T18:21:19.569Z,54.36
2018-04-07T18:23:46.097Z,54.33
2018-04-07T18:26:13.149Z,54.28
2018-04-07T18:28:39.663Z,55.02
2018-04-07T18:31:06.069Z,54.81
2018-04-07T18:33:32.575Z,59.07
2018-04-07T18:35:58.977Z,55.07
2018-04-07T18:38:25.369Z,55.88
2018-04-07T18:40:51.950Z,55.10
2018-04-07T18:43:18.396Z,54.73
2018-04-07T18:45:44.839Z,54.45
2018-04-07T18:48:11.340Z,54.03
2018-04-07T18:50:37.790Z,54.14
2018-04-07T18:53:04.294Z,53.86
2018-04-07T18:55:30.775Z,55.46
2018-04-07T18:57:57.256Z,54.30
2018-04-07T19:00:23.766Z,55.01
2018-04-07T19:02:50.266Z,55.12
2018-04-07T19:05:16.860Z,55.98
2018-04-07T19:07:43.293Z,56.41
2018-04-07T19:10:09.710Z,55.72
2018-04-07T19:12:36.105Z,58.52
2018-04-07T19:15:02.566Z,61.76
2018-04-07T19:17:29.150Z,61.03
2018-04-07T19:19:55.563Z,59.41
2018-04-07T19:22:22.092Z,59.17
2018-04-07T19:24:48.656Z,59.90
2018-04-07T19:27:15.198Z,59.20
2018-04-07T19:29:41.612Z,56.76
2018-04-07T19:32:08.027Z,57.89
2018-04-07T19:34:34.390Z,57.27
2018-04-07T19:37:00.820Z,56.90
2018-04-07T19:39:27.252Z,56.90
2018-04-07T19:41:53.814Z,56.85
2018-04-07T19:44:20.242Z,56.88
2018-04-07T19:46:46.649Z,60.10
2018-04-07T19:49:13.060Z,57.02
2018-04-07T19:51:39.475Z,56.46
2018-04-07T19:54:05.956Z,56.27
2018-04-07T19:56:32.526Z,56.52
2018-04-07T19:58:58.938Z,56.86
2018-04-07T20:01:25.417Z,56.71
2018-04-07T20:03:51.783Z,56.68
2018-04-07T20:06:18.302Z,57.31
2018-04-07T20:08:44.758Z,58.02
2018-04-07T20:11:11.177Z,57.84
2018-04-07T20:13:37.599Z,58.10
2018-04-07T20:16:04.005Z,57.90
2018-04-07T20:18:30.488Z,57.69
2018-04-07T20:20:57.050Z,57.67
2018-04-07T20:23:23.492Z,56.94
2018-04-07T20:25:49.869Z,56.93
2018-04-07T20:28:16.314Z,56.85
2018-04-07T20:30:42.734Z,57.25
2018-04-07T20:33:09.207Z,57.02
2018-04-07T20:35:35.663Z,57.55
2018-04-07T20:38:02.135Z,58.08
2018-04-07T20:40:28.611Z,57.88
2018-04-07T20:42:54.965Z,57.62
2018-04-07T20:45:21.634Z,57.78
2018-04-07T20:47:48.206Z,57.78
2018-04-07T20:50:14.610Z,57.77
2018-04-07T20:52:41.060Z,57.46
2018-04-07T20:55:07.489Z,57.38
2018-04-07T20:57:33.982Z,56.92
2018-04-07T21:00:00.378Z,56.80
2018-04-07T21:02:26.917Z,56.68
2018-04-07T21:04:53.408Z,58.29
2018-04-07T21:07:19.846Z,60.07
2018-04-07T21:09:46.362Z,59.38
2018-04-07T21:12:12.840Z,59.25
2018-04-07T21:14:39.236Z,60.00
2018-04-07T21:17:05.662Z,58.41
2018-04-07T21:19:32.097Z,59.23
2018-04-07T21:21:58.620Z,59.74
2018-04-07T21:24:25.009Z,60.13
2018-04-07T21:26:51.400Z,61.05
2018-04-07T21:29:17.778Z,58.31
2018-04-07T21:31:44.189Z,60.79
2018-04-07T21:34:10.598Z,59.30
2018-04-07T21:36:37.085Z,58.89
2018-04-07T21:39:03.664Z,60.10
2018-04-07T21:41:30.150Z,60.89
2018-04-07T21:43:56.609Z,60.41
2018-04-07T21:46:23.062Z,61.47
2018-04-07T21:48:49.595Z,60.43
2018-04-07T21:51:16.051Z,62.56
2018-04-07T21:53:42.466Z,60.37
2018-04-07T21:56:08.831Z,60.96
2018-04-07T21:58:35.358Z,60.05
2018-04-07T22:01:01.849Z,61.45
2018-04-07T22:03:28.338Z,60.69
2018-04-07T22:05:54.730Z,60.58
2018-04-07T22:08:21.174Z,60.96
2018-04-07T22:10:47.692Z,62.53
2018-04-07T22:13:14.202Z,59.59
2018-04-07T22:15:40.598Z,59.48
2018-04-07T22:18:07.018Z,60.08
2018-04-07T22:20:33.467Z,60.91
2018-04-07T22:22:59.892Z,60.71
2018-04-07T22:25:26.420Z,60.36
2018-04-07T22:27:52.920Z,59.81
2018-04-07T22:30:19.458Z,60.25
2018-04-07T22:32:46.047Z,59.52
2018-04-07T22:35:12.578Z,58.01
2018-04-07T22:37:39.007Z,58.20
2018-04-07T22:40:05.443Z,58.72
2018-04-07T22:42:31.879Z,59.07
2018-04-07T22:44:58.349Z,59.03
2018-04-07T22:47:24.772Z,59.33
2018-04-07T22:49:51.208Z,59.14
2018-04-07T22:52:17.667Z,59.07
2018-04-07T22:54:44.153Z,58.74
2018-04-07T22:57:10.627Z,58.53
2018-04-07T22:59:37.044Z,58.52
2018-04-07T23:02:03.607Z,58.31
2018-04-07T23:04:37.003Z,58.19
2018-04-07T23:07:03.448Z,58.02
2018-04-07T23:09:36.739Z,58.07
2018-04-07T23:12:03.155Z,58.12
2018-04-07T23:14:29.738Z,58.51
2018-04-07T23:16:56.105Z,59.93
2018-04-07T23:19:22.593Z,58.76
2018-04-07T23:21:48.974Z,59.04
2018-04-07T23:24:15.486Z,59.96
2018-04-07T23:26:41.953Z,61.20
2018-04-07T23:29:08.377Z,61.30
2018-04-07T23:31:34.860Z,61.70
2018-04-07T23:34:01.305Z,61.61
2018-04-07T23:36:27.785Z,61.83
2018-04-07T23:38:54.324Z,62.24
2018-04-07T23:41:20.706Z,61.75
2018-04-07T23:43:47.205Z,61.63
2018-04-07T23:46:13.557Z,61.99
2018-04-07T23:48:39.987Z,62.12
2018-04-07T23:51:06.449Z,61.98
2018-04-07T23:53:32.846Z,62.58
2018-04-07T23:55:59.200Z,62.68
2018-04-07T23:58:25.669Z,62.61
